createdAt,value
2023-04-16T00:02:30.923Z,100.00
2023-04-16T00:05:33.412Z,100.00
2023-04-16T00:08:35.944Z,100.00
2023-04-16T00:11:38.433Z,100.00
2023-04-16T00:14:40.688Z,100.00
2023-04-16T00:17:43.205Z,100.00
2023-04-16T00:20:45.348Z,100.00
2023-04-16T00:23:47.837Z,100.00
2023-04-16T00:26:49.970Z,100.00
2023-04-16T00:29:52.387Z,100.00
2023-04-16T00:32:54.525Z,100.00
2023-04-16T00:35:57.093Z,100.00
2023-04-16T00:38:59.306Z,100.00
2023-04-16T00:42:02.091Z,100.00
2023-04-16T00:45:05.647Z,100.00
2023-04-16T00:48:08.097Z,100.00
2023-04-16T00:51:11.517Z,100.00
2023-04-16T00:54:13.982Z,100.00
2023-04-16T00:57:17.174Z,100.00
2023-04-16T01:00:20.414Z,100.00
2023-04-16T01:03:24.519Z,100.00
2023-04-16T01:06:27.814Z,100.00
2023-04-16T01:09:30.152Z,100.00
2023-04-16T01:12:32.623Z,100.00
2023-04-16T01:15:34.897Z,100.00
2023-04-16T01:18:38.378Z,100.00
2023-04-16T01:21:40.501Z,100.00
2023-04-16T01:24:43.250Z,100.00
2023-04-16T01:27:45.750Z,100.00
2023-04-16T01:30:48.300Z,100.00
2023-04-16T01:33:51.971Z,100.00
2023-04-16T01:36:54.418Z,100.00
2023-04-16T01:39:56.736Z,100.00
2023-04-16T01:42:59.535Z,100.00
2023-04-16T01:46:18.741Z,100.00
2023-04-16T01:49:21.475Z,100.00
2023-04-16T01:52:23.677Z,100.00
2023-04-16T01:55:26.899Z,100.00
2023-04-16T01:58:30.042Z,100.00
2023-04-16T02:01:32.689Z,100.00
2023-04-16T02:04:35.366Z,100.00
2023-04-16T02:07:37.652Z,100.00
2023-04-16T02:10:40.061Z,100.00
2023-04-16T02:13:42.702Z,100.00
2023-04-16T02:16:45.577Z,100.00
2023-04-16T02:19:48.373Z,100.00
2023-04-16T02:22:51.111Z,100.00
2023-04-16T02:25:53.709Z,100.00
2023-04-16T02:28:56.255Z,100.00
2023-04-16T02:31:59.691Z,100.00
2023-04-16T02:35:04.090Z,100.00
2023-04-16T02:38:07.190Z,100.00
2023-04-16T02:41:10.452Z,100.00
2023-04-16T02:44:12.594Z,100.00
2023-04-16T02:47:14.986Z,100.00
2023-04-16T02:50:17.832Z,100.00
2023-04-16T02:53:20.357Z,100.00
2023-04-16T02:56:22.510Z,100.00
2023-04-16T02:59:24.966Z,100.00
2023-04-16T03:02:27.470Z,100.00
2023-04-16T03:05:29.990Z,100.00
2023-04-16T03:08:32.186Z,100.00
2023-04-16T03:11:34.785Z,100.00
2023-04-16T03:14:36.897Z,100.00
2023-04-16T03:17:39.353Z,100.00
2023-04-16T03:20:41.515Z,100.00
2023-04-16T03:23:44.176Z,100.00
2023-04-16T03:26:46.309Z,100.00
2023-04-16T03:29:48.761Z,100.00
2023-04-16T03:32:51.961Z,100.00
2023-04-16T03:35:58.436Z,100.00
2023-04-16T03:39:01.709Z,100.00
2023-04-16T03:42:04.457Z,100.00
2023-04-16T03:45:09.552Z,100.00
2023-04-16T03:48:12.739Z,100.00
2023-04-16T03:51:15.027Z,100.00
2023-04-16T03:54:17.840Z,100.00
2023-04-16T03:57:20.957Z,100.00
2023-04-16T04:00:23.781Z,100.00
2023-04-16T04:03:27.453Z,100.00
2023-04-16T04:06:30.815Z,100.00
2023-04-16T04:09:34.031Z,100.00
2023-04-16T04:12:38.095Z,100.00
2023-04-16T04:15:40.598Z,100.00
2023-04-16T04:18:44.354Z,100.00
2023-04-16T04:21:47.096Z,100.00
2023-04-16T04:24:49.302Z,100.00
2023-04-16T04:27:51.770Z,100.00
2023-04-16T04:30:53.944Z,100.00
2023-04-16T04:33:56.440Z,100.00
2023-04-16T04:36:59.306Z,100.00
2023-04-16T04:40:02.826Z,100.00
2023-04-16T04:43:05.092Z,100.00
2023-04-16T04:46:08.822Z,100.00
2023-04-16T04:49:11.364Z,100.00
2023-04-16T04:52:14.193Z,100.00
2023-04-16T04:55:16.489Z,100.00
2023-04-16T04:58:18.996Z,100.00
2023-04-16T05:01:21.201Z,100.00
2023-04-16T05:04:23.711Z,100.00
2023-04-16T05:07:25.860Z,100.00
2023-04-16T05:10:28.309Z,100.00
2023-04-16T05:13:30.423Z,100.00
2023-04-16T05:16:33.031Z,100.00
2023-04-16T05:19:35.342Z,100.00
2023-04-16T05:22:37.795Z,100.00
2023-04-16T05:25:39.935Z,100.00
2023-04-16T05:28:42.336Z,100.00
2023-04-16T05:31:44.493Z,100.00
2023-04-16T05:34:46.932Z,100.00
2023-04-16T05:37:49.091Z,100.00
2023-04-16T05:40:51.569Z,100.00
2023-04-16T05:43:53.722Z,100.00
2023-04-16T05:46:56.226Z,100.00
2023-04-16T05:49:58.453Z,100.00
2023-04-16T05:53:01.054Z,100.00
2023-04-16T05:56:03.319Z,100.00
2023-04-16T05:59:05.967Z,100.00
2023-04-16T06:02:08.210Z,100.00
2023-04-16T06:05:10.933Z,100.00
2023-04-16T06:08:13.135Z,100.00
2023-04-16T06:11:15.730Z,100.00
2023-04-16T06:14:17.971Z,100.00
2023-04-16T06:17:20.522Z,100.00
2023-04-16T06:20:23.007Z,100.00
2023-04-16T06:23:25.639Z,100.00
2023-04-16T06:26:27.790Z,100.00
2023-04-16T06:29:40.559Z,100.00
2023-04-16T06:32:44.420Z,100.00
2023-04-16T06:35:47.024Z,100.00
2023-04-16T06:38:49.163Z,100.00
2023-04-16T06:41:51.621Z,99.74
2023-04-16T06:44:53.962Z,100.00
2023-04-16T06:47:58.835Z,99.23
2023-04-16T06:51:01.919Z,98.54
2023-04-16T06:54:04.460Z,98.33
2023-04-16T06:57:06.627Z,97.49
2023-04-16T07:00:09.735Z,96.65
2023-04-16T07:03:12.173Z,96.30
2023-04-16T07:06:14.889Z,95.61
2023-04-16T07:09:18.007Z,95.27
2023-04-16T07:12:22.467Z,93.52
2023-04-16T07:15:25.098Z,92.95
2023-04-16T07:18:27.638Z,92.31
2023-04-16T07:21:29.817Z,92.15
2023-04-16T07:24:32.585Z,89.88
2023-04-16T07:27:34.688Z,90.75
2023-04-16T07:30:37.174Z,90.92
2023-04-16T07:33:39.451Z,90.20
2023-04-16T07:36:41.885Z,89.85
2023-04-16T07:39:44.062Z,88.76
2023-04-16T07:42:46.581Z,89.41
2023-04-16T07:45:48.777Z,84.89
2023-04-16T07:48:51.261Z,83.82
2023-04-16T07:51:53.442Z,84.10
2023-04-16T07:54:55.862Z,83.82
2023-04-16T07:57:58.038Z,82.29
2023-04-16T08:01:01.281Z,81.23
2023-04-16T08:04:03.899Z,81.02
2023-04-16T08:07:06.188Z,81.33
2023-04-16T08:10:08.992Z,81.07
2023-04-16T08:13:11.138Z,83.32
2023-04-16T08:16:13.672Z,82.69
2023-04-16T08:19:15.869Z,83.10
2023-04-16T08:22:18.577Z,81.63
2023-04-16T08:25:21.207Z,81.68
2023-04-16T08:28:23.632Z,78.35
2023-04-16T08:31:26.088Z,79.21
2023-04-16T08:34:28.608Z,76.86
2023-04-16T08:37:30.867Z,77.36
2023-04-16T08:40:37.861Z,75.82
2023-04-16T08:43:45.372Z,76.97
2023-04-16T08:46:48.420Z,77.88
2023-04-16T08:49:52.505Z,77.19
2023-04-16T08:53:10.119Z,76.95
2023-04-16T08:56:13.450Z,77.57
2023-04-16T08:59:16.612Z,76.13
2023-04-16T09:02:19.155Z,77.16
2023-04-16T09:05:25.537Z,76.79
2023-04-16T09:08:29.032Z,74.20
2023-04-16T09:11:31.777Z,76.31
2023-04-16T09:14:34.339Z,75.04
2023-04-16T09:17:36.864Z,74.90
2023-04-16T09:20:39.605Z,73.96
2023-04-16T09:23:42.128Z,75.61
2023-04-16T09:26:44.320Z,74.39
2023-04-16T09:29:46.753Z,74.40
2023-04-16T09:32:50.285Z,75.37
2023-04-16T09:35:53.288Z,75.99
2023-04-16T09:38:57.589Z,75.51
2023-04-16T09:42:00.856Z,73.87
2023-04-16T09:45:05.518Z,73.54
2023-04-16T09:48:08.539Z,74.38
2023-04-16T09:51:10.690Z,73.61
2023-04-16T09:54:13.542Z,74.34
2023-04-16T09:57:21.129Z,74.50
2023-04-16T10:00:23.599Z,75.03
2023-04-16T10:03:33.027Z,74.97
2023-04-16T10:06:35.434Z,74.09
2023-04-16T10:09:38.834Z,74.32
2023-04-16T10:12:41.419Z,72.15
2023-04-16T10:15:44.140Z,71.92
2023-04-16T10:18:47.196Z,71.65
2023-04-16T10:21:49.884Z,72.31
2023-04-16T10:24:53.113Z,72.51
2023-04-16T10:27:57.236Z,69.94
2023-04-16T10:31:05.617Z,70.50
2023-04-16T10:34:10.028Z,70.75
2023-04-16T10:37:12.600Z,68.43
2023-04-16T10:40:26.185Z,69.77
2023-04-16T10:43:30.367Z,68.86
2023-04-16T10:46:34.538Z,69.39
2023-04-16T10:49:36.927Z,66.47
2023-04-16T10:52:40.206Z,64.78
2023-04-16T10:55:56.689Z,66.13
2023-04-16T10:58:59.148Z,66.23
2023-04-16T11:02:07.152Z,64.11
2023-04-16T11:05:09.735Z,65.56
2023-04-16T11:08:17.341Z,62.26
2023-04-16T11:11:20.668Z,63.34
2023-04-16T11:14:23.551Z,63.20
2023-04-16T11:17:44.940Z,62.40
2023-04-16T11:20:47.148Z,60.54
2023-04-16T11:23:51.697Z,61.84
2023-04-16T11:26:53.961Z,61.87
2023-04-16T11:30:04.999Z,60.89
2023-04-16T11:33:11.933Z,61.73
2023-04-16T11:36:14.514Z,61.05
2023-04-16T11:39:16.928Z,59.46
2023-04-16T11:42:22.559Z,60.23
2023-04-16T11:45:24.896Z,61.08
2023-04-16T11:48:47.788Z,61.62
2023-04-16T11:51:50.061Z,62.29
2023-04-16T11:54:52.709Z,61.66
2023-04-16T11:57:54.828Z,61.81
2023-04-16T12:00:59.600Z,63.09
2023-04-16T12:04:03.186Z,62.46
2023-04-16T12:07:09.899Z,60.22
2023-04-16T12:10:12.460Z,59.73
2023-04-16T12:13:16.352Z,59.60
2023-04-16T12:16:20.859Z,59.25
2023-04-16T12:19:23.159Z,59.02
2023-04-16T12:22:36.612Z,59.13
2023-04-16T12:25:42.800Z,58.84
2023-04-16T12:28:45.192Z,57.12
2023-04-16T12:31:51.145Z,56.67
2023-04-16T12:34:53.577Z,57.56
2023-04-16T12:37:55.768Z,57.78
2023-04-16T12:40:58.918Z,56.00
2023-04-16T12:44:12.027Z,57.21
2023-04-16T12:47:14.591Z,57.47
2023-04-16T12:50:16.889Z,55.40
2023-04-16T12:53:19.394Z,55.80
2023-04-16T12:56:21.906Z,55.25
2023-04-16T12:59:24.483Z,55.33
2023-04-16T13:02:27.096Z,54.25
2023-04-16T13:05:29.648Z,54.80
2023-04-16T13:08:31.862Z,55.08
2023-04-16T13:11:34.302Z,52.57
2023-04-16T13:14:36.516Z,52.53
2023-04-16T13:17:39.024Z,51.97
2023-04-16T13:20:41.185Z,51.01
2023-04-16T13:23:43.665Z,51.78
2023-04-16T13:26:45.861Z,52.21
2023-04-16T13:29:48.345Z,53.27
2023-04-16T13:32:50.708Z,52.63
2023-04-16T13:35:53.243Z,51.76
2023-04-16T13:38:55.777Z,52.48
2023-04-16T13:41:58.230Z,53.30
2023-04-16T13:45:01.243Z,52.00
2023-04-16T13:48:04.072Z,52.19
2023-04-16T13:51:06.355Z,51.47
2023-04-16T13:54:08.832Z,51.49
2023-04-16T13:57:12.552Z,51.35
2023-04-16T14:00:15.877Z,51.51
2023-04-16T14:03:18.407Z,51.62
2023-04-16T14:06:21.201Z,53.02
2023-04-16T14:09:23.613Z,52.53
2023-04-16T14:12:25.830Z,54.45
2023-04-16T14:15:29.920Z,54.21
2023-04-16T14:18:32.082Z,54.28
2023-04-16T14:21:34.464Z,54.35
2023-04-16T14:24:36.647Z,55.60
2023-04-16T14:27:39.411Z,54.54
2023-04-16T14:30:41.534Z,53.73
2023-04-16T14:33:44.000Z,55.25
2023-04-16T14:36:46.308Z,54.90
2023-04-16T14:39:48.827Z,54.99
2023-04-16T14:42:51.109Z,55.51
2023-04-16T14:45:53.650Z,55.23
2023-04-16T14:48:55.941Z,56.13
2023-04-16T14:51:58.431Z,54.34
2023-04-16T14:55:00.688Z,54.25
2023-04-16T14:58:03.132Z,54.85
2023-04-16T15:01:05.420Z,53.51
2023-04-16T15:04:08.833Z,53.05
2023-04-16T15:07:11.177Z,52.97
2023-04-16T15:10:13.672Z,52.29
2023-04-16T15:13:15.934Z,52.69
2023-04-16T15:16:18.500Z,52.20
2023-04-16T15:19:20.725Z,53.67
2023-04-16T15:22:23.315Z,53.11
2023-04-16T15:25:25.703Z,51.96
2023-04-16T15:28:28.163Z,51.68
2023-04-16T15:31:30.575Z,52.87
2023-04-16T15:34:33.075Z,50.37
2023-04-16T15:37:35.177Z,50.27
2023-04-16T15:40:37.686Z,50.12
2023-04-16T15:43:39.879Z,49.68
2023-04-16T15:46:42.469Z,49.67
2023-04-16T15:49:44.770Z,49.47
2023-04-16T15:52:47.464Z,50.85
2023-04-16T15:55:52.464Z,50.36
2023-04-16T15:58:54.923Z,51.58
2023-04-16T16:01:57.302Z,51.89
2023-04-16T16:05:00.763Z,51.22
2023-04-16T16:08:03.092Z,50.73
2023-04-16T16:11:05.539Z,50.83
2023-04-16T16:14:07.697Z,48.75
2023-04-16T16:17:10.139Z,49.10
2023-04-16T16:20:12.813Z,49.12
2023-04-16T16:23:15.500Z,48.59
2023-04-16T16:26:18.037Z,48.84
2023-04-16T16:29:20.699Z,49.57
2023-04-16T16:32:22.894Z,50.21
2023-04-16T16:35:26.212Z,50.37
2023-04-16T16:38:28.431Z,50.46
2023-04-16T16:41:31.153Z,50.59
2023-04-16T16:44:33.266Z,50.46
2023-04-16T16:47:35.871Z,50.86
2023-04-16T16:50:38.055Z,51.36
2023-04-16T16:53:40.715Z,51.65
2023-04-16T16:56:42.829Z,52.03
2023-04-16T16:59:46.074Z,52.46
2023-04-16T17:02:51.150Z,53.22
2023-04-16T17:05:53.828Z,53.81
2023-04-16T17:08:56.057Z,54.13
2023-04-16T17:11:58.461Z,55.25
2023-04-16T17:15:00.918Z,55.61
2023-04-16T17:18:03.509Z,55.23
2023-04-16T17:21:05.977Z,56.50
2023-04-16T17:24:08.461Z,56.90
2023-04-16T17:27:11.089Z,57.54
2023-04-16T17:30:14.229Z,56.95
2023-04-16T17:33:17.115Z,57.72
2023-04-16T17:36:21.309Z,58.21
2023-04-16T17:39:23.460Z,58.66
2023-04-16T17:42:25.874Z,58.63
2023-04-16T17:45:27.999Z,58.28
2023-04-16T17:48:30.467Z,58.91
2023-04-16T17:51:32.735Z,59.19
2023-04-16T17:54:35.352Z,59.73
2023-04-16T17:57:37.549Z,59.06
2023-04-16T18:00:40.085Z,60.24
2023-04-16T18:03:44.260Z,60.78
2023-04-16T18:06:46.590Z,61.17
2023-04-16T18:09:49.012Z,61.65
2023-04-16T18:12:51.298Z,63.03
2023-04-16T18:15:53.909Z,63.02
2023-04-16T18:18:56.233Z,64.19
2023-04-16T18:21:58.806Z,63.56
2023-04-16T18:25:01.129Z,64.57
2023-04-16T18:28:05.113Z,65.26
2023-04-16T18:31:07.834Z,64.77
2023-04-16T18:34:10.585Z,65.65
2023-04-16T18:37:12.744Z,66.08
2023-04-16T18:40:15.276Z,67.51
2023-04-16T18:43:17.434Z,68.27
2023-04-16T18:46:19.999Z,68.49
2023-04-16T18:49:22.240Z,69.66
2023-04-16T18:52:24.813Z,69.95
2023-04-16T18:55:27.008Z,69.61
2023-04-16T18:58:29.485Z,69.58
2023-04-16T19:01:31.653Z,69.68
2023-04-16T19:04:34.087Z,69.31
2023-04-16T19:07:37.506Z,68.23
2023-04-16T19:10:39.969Z,67.84
2023-04-16T19:13:43.005Z,69.45
2023-04-16T19:16:45.505Z,68.49
2023-04-16T19:19:47.709Z,67.49
2023-04-16T19:22:50.220Z,66.91
2023-04-16T19:25:52.486Z,67.07
2023-04-16T19:28:54.937Z,66.32
2023-04-16T19:31:57.156Z,65.93
2023-04-16T19:34:59.612Z,66.06
2023-04-16T19:38:01.799Z,63.76
2023-04-16T19:41:04.287Z,64.19
2023-04-16T19:44:06.924Z,64.62
2023-04-16T19:47:09.417Z,65.59
2023-04-16T19:50:11.790Z,65.16
2023-04-16T19:53:14.244Z,66.54
2023-04-16T19:56:17.098Z,66.36
2023-04-16T19:59:20.638Z,66.62
2023-04-16T20:02:22.925Z,67.66
2023-04-16T20:05:26.527Z,65.72
2023-04-16T20:08:28.619Z,65.16
2023-04-16T20:11:31.258Z,64.15
2023-04-16T20:14:33.369Z,62.77
2023-04-16T20:17:35.985Z,63.27
2023-04-16T20:20:38.240Z,62.88
2023-04-16T20:23:40.900Z,61.42
2023-04-16T20:26:43.013Z,61.78
2023-04-16T20:29:45.529Z,61.84
2023-04-16T20:32:47.757Z,61.45
2023-04-16T20:35:52.122Z,60.63
2023-04-16T20:38:54.328Z,60.66
2023-04-16T20:41:56.982Z,61.09
2023-04-16T20:45:00.695Z,61.40
2023-04-16T20:48:03.458Z,60.82
2023-04-16T20:51:07.832Z,61.30
2023-04-16T20:54:10.381Z,60.77
2023-04-16T20:57:12.568Z,62.03
2023-04-16T21:00:15.892Z,61.06
2023-04-16T21:03:19.093Z,61.08
2023-04-16T21:06:22.554Z,60.20
2023-04-16T21:09:24.709Z,60.17
2023-04-16T21:12:27.636Z,59.52
2023-04-16T21:15:30.892Z,59.66
2023-04-16T21:18:33.333Z,60.00
2023-04-16T21:21:35.631Z,59.82
2023-04-16T21:24:38.061Z,59.46
2023-04-16T21:27:40.221Z,59.29
2023-04-16T21:30:42.771Z,59.96
2023-04-16T21:33:44.940Z,60.26
2023-04-16T21:36:47.587Z,59.77
2023-04-16T21:39:50.018Z,59.87
2023-04-16T21:42:52.622Z,59.78
2023-04-16T21:45:55.035Z,59.06
2023-04-16T21:48:57.437Z,58.87
2023-04-16T21:52:02.259Z,59.61
2023-04-16T21:55:05.244Z,58.19
2023-04-16T21:58:07.359Z,58.06
2023-04-16T22:01:11.063Z,58.64
2023-04-16T22:04:14.021Z,60.19
2023-04-16T22:07:16.962Z,59.83
2023-04-16T22:10:19.632Z,59.23
2023-04-16T22:13:22.746Z,59.30
2023-04-16T22:16:25.686Z,59.69
2023-04-16T22:19:28.215Z,58.83
2023-04-16T22:22:30.608Z,58.64
2023-04-16T22:25:32.853Z,58.06
2023-04-16T22:28:35.318Z,58.01
2023-04-16T22:31:37.520Z,58.50
2023-04-16T22:34:39.943Z,57.74
2023-04-16T22:37:42.108Z,58.44
2023-04-16T22:40:47.333Z,57.93
2023-04-16T22:43:50.616Z,58.49
2023-04-16T22:46:54.832Z,57.80
2023-04-16T22:49:56.990Z,59.01
2023-04-16T22:52:59.433Z,58.04
2023-04-16T22:56:01.608Z,58.87
2023-04-16T22:59:04.620Z,59.21
2023-04-16T23:02:06.835Z,59.08
2023-04-16T23:05:09.461Z,58.76
2023-04-16T23:08:11.565Z,59.90
2023-04-16T23:11:13.949Z,60.03
2023-04-16T23:14:16.981Z,60.04
2023-04-16T23:17:19.523Z,59.84
2023-04-16T23:20:21.663Z,59.74
2023-04-16T23:23:24.186Z,59.32
2023-04-16T23:26:26.434Z,59.26
2023-04-16T23:29:28.833Z,59.56
2023-04-16T23:32:31.814Z,59.54
2023-04-16T23:35:34.581Z,59.15
2023-04-16T23:38:36.766Z,59.39
2023-04-16T23:41:39.420Z,58.78
2023-04-16T23:44:41.651Z,59.38
2023-04-16T23:47:44.689Z,59.13
2023-04-16T23:50:47.024Z,59.25
2023-04-16T23:53:49.528Z,59.23
2023-04-16T23:56:51.647Z,59.08
2023-04-16T23:59:54.396Z,59.82
